createdAt,value
2022-12-18T00:00:18.888Z,24.35
2022-12-18T00:01:51.201Z,24.08
2022-12-18T00:03:23.043Z,19.75
2022-12-18T00:04:54.797Z,29.52
2022-12-18T00:06:28.561Z,26.75
2022-12-18T00:08:00.208Z,22.60
2022-12-18T00:09:39.742Z,26.92
2022-12-18T00:11:14.462Z,27.48
2022-12-18T00:12:46.008Z,14.80
2022-12-18T00:14:17.779Z,27.45
2022-12-18T00:15:49.409Z,22.33
2022-12-18T00:17:20.946Z,24.00
2022-12-18T00:18:54.898Z,20.40
2022-12-18T00:20:26.796Z,22.17
2022-12-18T00:21:59.157Z,23.90
2022-12-18T00:23:31.734Z,29.85
2022-12-18T00:25:03.654Z,21.85
2022-12-18T00:26:36.645Z,29.48
2022-12-18T00:28:08.438Z,33.60
2022-12-18T00:29:41.267Z,20.67
2022-12-18T00:31:16.216Z,17.75
2022-12-18T00:32:47.846Z,22.67
2022-12-18T00:34:19.518Z,23.55
2022-12-18T00:35:51.086Z,23.55
2022-12-18T00:37:22.806Z,18.98
2022-12-18T00:38:58.018Z,18.48
2022-12-18T00:40:29.608Z,28.95
2022-12-18T00:42:19.452Z,27.23
2022-12-18T00:43:51.016Z,16.73
2022-12-18T00:45:27.578Z,22.25
2022-12-18T00:46:59.591Z,29.90
2022-12-18T00:48:31.276Z,15.32
2022-12-18T00:50:02.910Z,17.90
2022-12-18T00:51:34.648Z,31.60
2022-12-18T00:53:06.249Z,14.75
2022-12-18T00:54:37.818Z,19.83
2022-12-18T00:56:09.588Z,25.05
2022-12-18T00:57:41.694Z,21.13
2022-12-18T00:59:13.223Z,33.75
2022-12-18T01:00:44.937Z,29.10
2022-12-18T01:02:16.744Z,21.80
2022-12-18T01:03:48.855Z,17.33
2022-12-18T01:05:21.584Z,19.40
2022-12-18T01:06:53.155Z,22.67
2022-12-18T01:08:24.913Z,19.65
2022-12-18T01:09:56.431Z,32.60
2022-12-18T01:11:27.991Z,16.95
2022-12-18T01:12:59.759Z,28.80
2022-12-18T01:14:31.406Z,33.25
2022-12-18T01:16:04.721Z,26.05
2022-12-18T01:17:36.327Z,25.50
2022-12-18T01:19:07.952Z,25.10
2022-12-18T01:20:39.572Z,32.08
2022-12-18T01:22:11.157Z,26.67
2022-12-18T01:23:43.247Z,28.23
2022-12-18T01:25:14.835Z,17.55
2022-12-18T01:26:46.812Z,27.58
2022-12-18T01:28:19.736Z,25.77
2022-12-18T01:29:51.509Z,20.88
2022-12-18T01:31:28.932Z,20.20
2022-12-18T01:33:00.491Z,21.63
2022-12-18T01:34:32.089Z,19.27
2022-12-18T01:36:03.743Z,17.95
2022-12-18T01:37:35.274Z,21.05
2022-12-18T01:39:16.448Z,21.10
2022-12-18T01:40:48.063Z,17.60
2022-12-18T01:42:19.654Z,11.80
2022-12-18T01:43:58.429Z,12.35
2022-12-18T01:45:32.724Z,33.83
2022-12-18T01:47:04.386Z,13.90
2022-12-18T01:48:36.056Z,17.45
2022-12-18T01:50:25.525Z,28.00
2022-12-18T01:51:58.719Z,16.90
2022-12-18T01:53:30.270Z,31.92
2022-12-18T01:55:05.957Z,24.45
2022-12-18T01:56:37.796Z,14.45
2022-12-18T01:58:11.106Z,18.90
2022-12-18T01:59:46.162Z,12.65
2022-12-18T02:01:17.895Z,18.98
2022-12-18T02:02:49.747Z,16.95
2022-12-18T02:04:26.297Z,25.05
2022-12-18T02:06:19.376Z,10.63
2022-12-18T02:08:16.541Z,18.48
2022-12-18T02:09:57.849Z,11.73
2022-12-18T02:11:38.354Z,20.23
2022-12-18T02:13:28.146Z,12.95
2022-12-18T02:15:25.279Z,8.65
2022-12-18T02:17:19.063Z,14.30
2022-12-18T02:18:57.681Z,5.65
2022-12-18T02:20:36.073Z,11.25
2022-12-18T02:22:25.827Z,17.40
2022-12-18T02:24:08.970Z,28.38
2022-12-18T02:26:28.751Z,18.25
2022-12-18T02:28:02.969Z,13.68
2022-12-18T02:29:38.677Z,24.67
2022-12-18T02:31:16.117Z,23.70
2022-12-18T02:32:52.768Z,9.60
2022-12-18T02:34:30.130Z,18.27
2022-12-18T02:36:03.299Z,29.88
2022-12-18T02:37:40.139Z,24.85
2022-12-18T02:39:14.562Z,15.80
2022-12-18T02:40:55.654Z,18.23
2022-12-18T02:42:29.063Z,23.33
2022-12-18T02:44:02.937Z,16.38
2022-12-18T02:45:36.583Z,20.38
2022-12-18T02:47:12.437Z,21.95
2022-12-18T02:48:44.674Z,31.75
2022-12-18T02:50:38.983Z,24.00
2022-12-18T02:52:39.453Z,16.90
2022-12-18T02:54:35.078Z,18.70
2022-12-18T02:56:33.905Z,14.95
2022-12-18T02:58:17.242Z,25.92
2022-12-18T02:59:59.349Z,18.80
2022-12-18T03:01:37.160Z,14.77
2022-12-18T03:03:31.191Z,25.88
2022-12-18T03:05:17.540Z,30.50
2022-12-18T03:06:55.865Z,23.58
2022-12-18T03:08:32.498Z,20.58
2022-12-18T03:10:07.290Z,28.75
2022-12-18T03:12:01.453Z,19.35
2022-12-18T03:13:59.522Z,45.35
2022-12-18T03:15:45.348Z,19.48
2022-12-18T03:17:23.476Z,24.33
2022-12-18T03:19:02.749Z,24.95
2022-12-18T03:20:38.051Z,32.72
2022-12-18T03:22:11.151Z,26.77
2022-12-18T03:23:51.833Z,23.30
2022-12-18T03:25:26.799Z,36.88
2022-12-18T03:27:03.547Z,21.50
2022-12-18T03:28:40.694Z,28.42
2022-12-18T03:30:15.391Z,17.38
2022-12-18T03:31:54.716Z,19.92
2022-12-18T03:33:28.557Z,25.67
2022-12-18T03:35:05.584Z,21.95
2022-12-18T03:36:41.181Z,21.30
2022-12-18T03:38:13.473Z,33.60
2022-12-18T03:41:30.593Z,20.90
2022-12-18T03:43:40.757Z,14.95
2022-12-18T03:45:22.643Z,19.95
2022-12-18T03:47:01.126Z,25.10
2022-12-18T03:48:40.205Z,29.42
2022-12-18T03:50:38.944Z,28.77
2022-12-18T03:52:37.179Z,25.45
2022-12-18T03:54:10.976Z,21.90
2022-12-18T03:55:48.717Z,23.30
2022-12-18T03:57:24.988Z,24.00
2022-12-18T03:59:01.529Z,16.85
2022-12-18T04:00:35.719Z,19.65
2022-12-18T04:02:13.060Z,32.83
2022-12-18T04:03:46.907Z,30.88
2022-12-18T04:05:21.143Z,22.02
2022-12-18T04:06:53.885Z,19.48
2022-12-18T04:08:26.647Z,21.55
2022-12-18T04:10:13.046Z,18.45
2022-12-18T04:11:47.561Z,27.48
2022-12-18T04:13:25.452Z,24.77
2022-12-18T04:14:57.257Z,34.17
2022-12-18T04:16:29.417Z,24.30
2022-12-18T04:18:04.913Z,18.23
2022-12-18T04:19:43.856Z,40.13
2022-12-18T04:21:16.114Z,46.85
2022-12-18T04:22:47.791Z,32.22
2022-12-18T04:24:19.497Z,40.50
2022-12-18T04:26:01.422Z,34.45
2022-12-18T04:27:45.330Z,33.95
2022-12-18T04:29:17.374Z,51.53
2022-12-18T04:30:49.014Z,38.95
2022-12-18T04:32:21.333Z,17.98
2022-12-18T04:33:53.734Z,33.20
2022-12-18T04:35:26.084Z,25.20
2022-12-18T04:36:57.718Z,24.30
2022-12-18T04:38:30.111Z,20.50
2022-12-18T04:40:09.363Z,32.78
2022-12-18T04:41:46.012Z,35.60
2022-12-18T04:43:18.686Z,32.58
2022-12-18T04:44:50.353Z,16.98
2022-12-18T04:46:22.071Z,26.98
2022-12-18T04:47:53.681Z,69.85
2022-12-18T04:49:25.327Z,67.75
2022-12-18T04:50:56.853Z,41.10
2022-12-18T04:52:28.786Z,16.88
2022-12-18T04:54:01.200Z,55.60
2022-12-18T04:55:32.814Z,88.70
2022-12-18T04:57:04.513Z,57.22
2022-12-18T04:58:37.102Z,39.08
2022-12-18T05:00:10.128Z,58.97
2022-12-18T05:01:42.027Z,41.67
2022-12-18T05:03:14.034Z,22.55
2022-12-18T05:04:45.725Z,61.83
2022-12-18T05:06:17.315Z,44.15
2022-12-18T05:07:48.874Z,28.65
2022-12-18T05:09:20.412Z,23.85
2022-12-18T05:11:09.559Z,26.20
2022-12-18T05:12:59.038Z,24.70
2022-12-18T05:14:32.399Z,37.47
2022-12-18T05:16:04.465Z,43.30
2022-12-18T05:17:36.034Z,33.72
2022-12-18T05:19:07.614Z,66.85
2022-12-18T05:20:39.234Z,44.60
2022-12-18T05:22:11.008Z,21.92
2022-12-18T05:23:43.085Z,27.65
2022-12-18T05:25:15.102Z,32.67
2022-12-18T05:26:46.697Z,20.50
2022-12-18T05:28:18.291Z,18.83
2022-12-18T05:29:49.788Z,31.40
2022-12-18T05:31:21.431Z,39.63
2022-12-18T05:32:53.055Z,17.27
2022-12-18T05:34:25.106Z,28.13
2022-12-18T05:36:01.892Z,33.85
2022-12-18T05:37:35.876Z,50.90
2022-12-18T05:39:11.297Z,33.72
2022-12-18T05:40:44.453Z,19.60
2022-12-18T05:42:16.056Z,45.65
2022-12-18T05:43:47.622Z,26.88
2022-12-18T05:45:19.221Z,31.08
2022-12-18T05:46:50.782Z,33.33
2022-12-18T05:48:22.868Z,44.17
2022-12-18T05:49:54.442Z,23.33
2022-12-18T05:51:26.097Z,21.83
2022-12-18T05:52:57.693Z,33.58
2022-12-18T05:54:29.398Z,36.85
2022-12-18T05:56:03.394Z,43.30
2022-12-18T05:57:35.012Z,40.60
2022-12-18T05:59:06.647Z,31.95
2022-12-18T06:00:41.013Z,45.28
2022-12-18T06:02:12.680Z,48.65
2022-12-18T06:03:45.159Z,31.95
2022-12-18T06:05:17.251Z,42.72
2022-12-18T06:06:48.802Z,28.48
2022-12-18T06:08:20.417Z,30.65
2022-12-18T06:09:51.999Z,55.95
2022-12-18T06:11:26.362Z,55.40
2022-12-18T06:12:57.974Z,20.55
2022-12-18T06:14:29.573Z,35.28
2022-12-18T06:16:04.469Z,22.40
2022-12-18T06:17:37.956Z,38.33
2022-12-18T06:19:16.178Z,37.08
2022-12-18T06:20:58.590Z,28.23
2022-12-18T06:22:32.125Z,31.02
2022-12-18T06:24:03.773Z,29.33
2022-12-18T06:25:39.126Z,41.08
2022-12-18T06:27:11.184Z,25.73
2022-12-18T06:28:43.193Z,41.47
2022-12-18T06:30:15.254Z,22.92
2022-12-18T06:31:46.950Z,22.90
2022-12-18T06:33:18.683Z,36.63
2022-12-18T06:34:50.392Z,40.95
2022-12-18T06:36:22.364Z,41.92
2022-12-18T06:37:53.974Z,14.38
2022-12-18T06:39:25.904Z,28.15
2022-12-18T06:40:57.548Z,44.20
2022-12-18T06:42:30.231Z,29.95
2022-12-18T06:44:01.832Z,27.55
2022-12-18T06:45:33.469Z,20.95
2022-12-18T06:47:05.088Z,40.30
2022-12-18T06:48:36.812Z,37.03
2022-12-18T06:50:08.453Z,22.40
2022-12-18T06:51:40.081Z,23.77
2022-12-18T06:53:11.889Z,34.00
2022-12-18T06:54:43.507Z,36.88
2022-12-18T06:56:15.464Z,24.05
2022-12-18T06:57:47.153Z,29.00
2022-12-18T06:59:18.853Z,24.95
2022-12-18T07:00:50.471Z,24.35
2022-12-18T07:02:22.449Z,18.08
2022-12-18T07:03:56.320Z,18.10
2022-12-18T07:05:27.916Z,24.95
2022-12-18T07:06:59.472Z,33.08
2022-12-18T07:08:32.493Z,25.77
2022-12-18T07:10:04.552Z,21.98
2022-12-18T07:11:36.565Z,29.95
2022-12-18T07:13:08.101Z,32.58
2022-12-18T07:14:39.694Z,34.17
2022-12-18T07:16:22.615Z,30.60
2022-12-18T07:17:56.687Z,36.65
2022-12-18T07:19:28.263Z,19.15
2022-12-18T07:21:05.333Z,30.25
2022-12-18T07:22:36.907Z,32.33
2022-12-18T07:24:08.713Z,27.88
2022-12-18T07:25:40.754Z,28.08
2022-12-18T07:27:12.283Z,27.95
2022-12-18T07:28:43.878Z,18.15
2022-12-18T07:30:15.554Z,32.22
2022-12-18T07:31:47.132Z,13.95
2022-12-18T07:33:18.787Z,21.85
2022-12-18T07:34:50.380Z,28.30
2022-12-18T07:36:23.504Z,22.27
2022-12-18T07:37:55.134Z,54.00
2022-12-18T07:39:26.813Z,26.80
2022-12-18T07:41:02.949Z,39.40
2022-12-18T07:42:34.583Z,44.83
2022-12-18T07:44:06.107Z,24.70
2022-12-18T07:45:37.741Z,17.77
2022-12-18T07:47:12.192Z,33.85
2022-12-18T07:48:48.304Z,37.17
2022-12-18T07:50:21.669Z,32.35
2022-12-18T07:51:57.013Z,39.38
2022-12-18T07:53:28.594Z,21.27
2022-12-18T07:55:00.182Z,40.88
2022-12-18T07:56:31.809Z,19.25
2022-12-18T07:58:04.919Z,25.98
2022-12-18T07:59:36.738Z,43.92
2022-12-18T08:01:13.108Z,17.98
2022-12-18T08:02:44.940Z,35.20
2022-12-18T08:04:16.654Z,23.05
2022-12-18T08:05:51.439Z,31.23
2022-12-18T08:07:23.189Z,18.55
2022-12-18T08:08:56.388Z,20.77
2022-12-18T08:10:28.068Z,20.00
2022-12-18T08:11:59.650Z,20.00
2022-12-18T08:13:31.522Z,14.75
2022-12-18T08:15:03.338Z,13.18
2022-12-18T08:16:35.717Z,15.23
2022-12-18T08:18:11.348Z,15.40
2022-12-18T08:19:45.656Z,22.60
2022-12-18T08:21:20.761Z,21.85
2022-12-18T08:22:53.143Z,33.42
2022-12-18T08:24:24.768Z,23.98
2022-12-18T08:25:59.006Z,22.95
2022-12-18T08:27:30.694Z,25.30
2022-12-18T08:29:02.442Z,23.10
2022-12-18T08:30:34.180Z,16.45
2022-12-18T08:32:06.000Z,12.55
2022-12-18T08:33:39.323Z,21.52
2022-12-18T08:35:12.720Z,15.23
2022-12-18T08:36:44.382Z,20.48
2022-12-18T08:38:16.072Z,27.27
2022-12-18T08:39:48.218Z,19.80
2022-12-18T08:41:21.313Z,13.50
2022-12-18T08:43:11.706Z,24.13
2022-12-18T08:44:43.408Z,19.17
2022-12-18T08:46:16.558Z,15.35
2022-12-18T08:47:48.468Z,20.00
2022-12-18T08:49:20.227Z,19.30
2022-12-18T08:50:56.969Z,27.60
2022-12-18T08:52:29.321Z,18.48
2022-12-18T08:54:01.129Z,20.92
2022-12-18T08:55:33.343Z,20.77
2022-12-18T08:57:05.031Z,22.48
2022-12-18T08:58:36.793Z,13.93
2022-12-18T09:00:09.342Z,15.13
2022-12-18T09:01:41.084Z,11.45
2022-12-18T09:03:17.687Z,14.50
2022-12-18T09:04:55.409Z,25.15
2022-12-18T09:06:28.933Z,30.30
2022-12-18T09:08:00.478Z,27.05
2022-12-18T09:09:32.154Z,25.67
2022-12-18T09:11:04.309Z,24.48
2022-12-18T09:12:35.879Z,25.48
2022-12-18T09:14:07.631Z,21.80
2022-12-18T09:15:43.884Z,25.92
2022-12-18T09:17:15.646Z,25.90
2022-12-18T09:18:48.448Z,13.93
2022-12-18T09:20:20.151Z,22.85
2022-12-18T09:21:51.760Z,31.23
2022-12-18T09:23:23.436Z,15.88
2022-12-18T09:24:55.219Z,17.58
2022-12-18T09:26:27.816Z,31.27
2022-12-18T09:28:11.794Z,25.33
2022-12-18T09:29:43.453Z,19.63
2022-12-18T09:31:15.148Z,26.50
2022-12-18T09:32:46.778Z,29.73
2022-12-18T09:34:18.627Z,22.75
2022-12-18T09:35:50.357Z,30.67
2022-12-18T09:37:21.980Z,25.00
2022-12-18T09:38:54.250Z,21.67
2022-12-18T09:40:33.784Z,26.65
2022-12-18T09:42:05.721Z,33.22
2022-12-18T09:43:43.610Z,34.55
2022-12-18T09:45:17.015Z,33.88
2022-12-18T09:47:08.422Z,29.67
2022-12-18T09:48:43.993Z,30.00
2022-12-18T09:50:30.576Z,18.83
2022-12-18T09:52:12.658Z,22.45
2022-12-18T09:54:07.807Z,33.78
2022-12-18T09:55:43.926Z,23.55
2022-12-18T09:58:59.880Z,18.77
2022-12-18T10:00:31.852Z,18.75
2022-12-18T10:02:14.673Z,20.50
2022-12-18T10:03:46.328Z,23.17
2022-12-18T10:05:40.556Z,18.17
2022-12-18T10:07:33.615Z,24.08
2022-12-18T10:09:33.484Z,15.57
2022-12-18T10:11:19.631Z,19.13
2022-12-18T10:13:32.695Z,30.23
2022-12-18T10:15:36.377Z,17.63
2022-12-18T10:17:22.200Z,22.55
2022-12-18T10:19:10.571Z,17.48
2022-12-18T10:20:47.184Z,16.42
2022-12-18T10:22:44.434Z,18.20
2022-12-18T10:24:29.715Z,28.15
2022-12-18T10:26:11.488Z,21.92
2022-12-18T10:27:43.163Z,38.63
2022-12-18T10:29:16.620Z,35.25
2022-12-18T10:30:48.573Z,19.30
2022-12-18T10:32:23.266Z,10.68
2022-12-18T10:33:56.260Z,25.40
2022-12-18T10:35:29.750Z,37.78
2022-12-18T10:37:03.032Z,27.98
2022-12-18T10:38:35.636Z,28.40
2022-12-18T10:40:22.386Z,30.02
2022-12-18T10:42:18.630Z,20.08
2022-12-18T10:44:18.827Z,26.75
2022-12-18T10:46:15.851Z,30.70
2022-12-18T10:47:50.191Z,14.50
2022-12-18T10:49:30.504Z,20.02
2022-12-18T10:51:12.340Z,25.63
2022-12-18T10:52:47.805Z,40.75
2022-12-18T10:54:23.548Z,26.38
2022-12-18T10:55:58.949Z,36.30
2022-12-18T10:57:32.247Z,46.08
2022-12-18T10:59:06.978Z,24.10
2022-12-18T11:00:38.822Z,35.33
2022-12-18T11:02:28.474Z,36.08
2022-12-18T11:04:08.605Z,25.73
2022-12-18T11:05:40.390Z,53.35
2022-12-18T11:07:12.041Z,35.38
2022-12-18T11:08:57.658Z,42.25
2022-12-18T11:10:38.626Z,40.85
2022-12-18T11:12:19.516Z,43.38
2022-12-18T11:14:03.328Z,53.60
2022-12-18T11:15:35.238Z,59.40
2022-12-18T11:17:26.192Z,48.47
2022-12-18T11:19:26.523Z,50.22
2022-12-18T11:21:07.419Z,47.63
2022-12-18T11:22:41.782Z,47.30
2022-12-18T11:24:23.330Z,63.90
2022-12-18T11:26:02.864Z,51.70
2022-12-18T11:27:38.895Z,55.90
2022-12-18T11:29:16.831Z,50.97
2022-12-18T11:30:49.809Z,57.17
2022-12-18T11:32:33.189Z,44.80
2022-12-18T11:34:28.105Z,43.10
2022-12-18T11:36:03.857Z,48.75
2022-12-18T11:37:37.228Z,42.97
2022-12-18T11:39:18.368Z,46.92
2022-12-18T11:40:59.318Z,40.20
2022-12-18T11:42:42.446Z,52.13
2022-12-18T11:44:19.243Z,50.25
2022-12-18T11:46:00.929Z,58.60
2022-12-18T11:47:41.663Z,57.97
2022-12-18T11:49:27.915Z,53.17
2022-12-18T11:51:06.404Z,63.55
2022-12-18T11:52:41.472Z,52.60
2022-12-18T11:54:17.296Z,46.47
2022-12-18T11:56:26.497Z,46.88
2022-12-18T11:58:18.290Z,46.97
2022-12-18T12:00:08.564Z,44.53
2022-12-18T12:01:56.301Z,46.60
2022-12-18T12:03:49.600Z,57.92
2022-12-18T12:05:33.265Z,48.30
2022-12-18T12:07:10.628Z,53.70
2022-12-18T12:08:45.520Z,44.08
2022-12-18T12:10:32.229Z,48.05
2022-12-18T12:12:21.724Z,46.60
2022-12-18T12:14:06.235Z,53.28
2022-12-18T12:16:18.109Z,42.17
2022-12-18T12:17:49.650Z,41.53
2022-12-18T12:19:56.193Z,43.88
2022-12-18T12:21:33.817Z,48.05
2022-12-18T12:23:23.551Z,50.42
2022-12-18T12:25:15.111Z,53.30
2022-12-18T12:27:24.073Z,45.47
2022-12-18T12:29:05.471Z,46.40
2022-12-18T12:31:27.229Z,45.63
2022-12-18T12:33:13.857Z,51.92
2022-12-18T12:35:19.737Z,50.58
2022-12-18T12:37:10.007Z,44.30
2022-12-18T12:38:51.556Z,48.88
2022-12-18T12:40:52.069Z,47.75
2022-12-18T12:43:02.627Z,53.10
2022-12-18T12:44:45.381Z,41.60
2022-12-18T12:46:23.904Z,41.60
2022-12-18T12:47:58.718Z,40.25
2022-12-18T12:51:36.834Z,47.20
2022-12-18T12:53:24.537Z,50.92
2022-12-18T12:54:57.799Z,41.50
2022-12-18T12:56:52.384Z,49.00
2022-12-18T12:58:49.082Z,50.92
2022-12-18T13:00:20.991Z,52.38
2022-12-18T13:02:16.906Z,52.83
2022-12-18T13:04:21.778Z,41.92
2022-12-18T13:06:01.085Z,51.78
2022-12-18T13:07:40.928Z,52.40
2022-12-18T13:09:12.621Z,68.88
2022-12-18T13:10:44.423Z,55.13
2022-12-18T13:12:36.009Z,52.80
2022-12-18T13:13:43.500Z,53.00
2022-12-18T13:14:30.029Z,50.40
2022-12-18T13:16:09.259Z,45.13
2022-12-18T13:17:40.975Z,47.40
2022-12-18T13:19:23.111Z,49.90
2022-12-18T13:20:58.558Z,57.38
2022-12-18T13:22:36.020Z,53.88
2022-12-18T13:24:22.365Z,52.60
2022-12-18T13:25:58.436Z,52.17
2022-12-18T13:27:45.125Z,27.63
2022-12-18T13:29:55.365Z,51.13
2022-12-18T13:31:42.222Z,49.47
2022-12-18T13:33:14.361Z,42.10
2022-12-18T13:34:46.055Z,67.90
2022-12-18T13:36:23.637Z,51.15
2022-12-18T13:37:56.439Z,64.03
2022-12-18T13:39:35.971Z,56.33
2022-12-18T13:41:14.509Z,64.95
2022-12-18T13:43:06.708Z,62.15
2022-12-18T13:44:44.425Z,60.35
2022-12-18T13:46:30.293Z,54.53
2022-12-18T13:48:02.075Z,65.60
2022-12-18T13:49:42.246Z,56.50
2022-12-18T13:51:19.028Z,58.08
2022-12-18T13:52:53.983Z,57.25
2022-12-18T13:54:41.379Z,58.28
2022-12-18T13:56:24.441Z,63.30
2022-12-18T13:58:06.798Z,54.88
2022-12-18T13:59:43.429Z,46.75
2022-12-18T14:01:25.077Z,42.00
2022-12-18T14:02:58.996Z,57.67
2022-12-18T14:04:32.332Z,68.97
2022-12-18T14:06:08.652Z,50.92
2022-12-18T14:07:45.143Z,65.28
2022-12-18T14:09:27.511Z,45.80
2022-12-18T14:10:59.428Z,54.65
2022-12-18T14:13:05.848Z,51.35
2022-12-18T14:14:38.151Z,58.28
2022-12-18T14:16:15.433Z,50.38
2022-12-18T14:17:48.426Z,55.33
2022-12-18T14:19:20.412Z,54.30
2022-12-18T14:20:56.757Z,57.80
2022-12-18T14:22:30.410Z,53.60
2022-12-18T14:24:22.838Z,61.15
2022-12-18T14:25:54.426Z,59.63
2022-12-18T14:27:27.157Z,58.08
2022-12-18T14:29:24.049Z,58.40
2022-12-18T14:30:57.398Z,53.05
2022-12-18T14:32:29.155Z,53.35
2022-12-18T14:34:03.879Z,67.28
2022-12-18T14:35:54.507Z,53.83
2022-12-18T14:37:28.310Z,68.10
2022-12-18T14:39:00.359Z,59.08
2022-12-18T14:40:32.000Z,61.63
2022-12-18T14:42:03.815Z,56.67
2022-12-18T14:43:41.518Z,63.55
2022-12-18T14:45:41.806Z,62.80
2022-12-18T14:47:17.041Z,51.38
2022-12-18T14:48:49.296Z,58.58
2022-12-18T14:50:21.022Z,67.80
2022-12-18T14:52:01.325Z,61.97
2022-12-18T14:53:49.144Z,58.63
2022-12-18T14:55:23.970Z,57.58
2022-12-18T14:57:03.692Z,63.80
2022-12-18T14:58:35.385Z,62.78
2022-12-18T15:00:16.558Z,68.57
2022-12-18T15:02:04.322Z,63.95
2022-12-18T15:03:48.046Z,70.53
2022-12-18T15:05:28.582Z,66.00
2022-12-18T15:07:14.741Z,58.35
2022-12-18T15:08:46.519Z,67.68
2022-12-18T15:10:28.118Z,70.60
2022-12-18T15:12:02.176Z,58.05
2022-12-18T15:13:33.837Z,62.90
2022-12-18T15:15:40.299Z,65.72
2022-12-18T15:17:23.862Z,61.72
2022-12-18T15:18:57.363Z,64.53
2022-12-18T15:20:32.598Z,67.82
2022-12-18T15:22:06.547Z,64.70
2022-12-18T15:23:51.863Z,65.88
2022-12-18T15:25:37.676Z,67.93
2022-12-18T15:27:26.264Z,58.58
2022-12-18T15:29:00.927Z,62.63
2022-12-18T15:30:32.598Z,62.08
2022-12-18T15:32:06.651Z,59.42
2022-12-18T15:33:53.931Z,61.50
2022-12-18T15:35:26.181Z,74.80
2022-12-18T15:36:57.924Z,66.55
2022-12-18T15:38:29.627Z,68.13
2022-12-18T15:40:01.262Z,72.45
2022-12-18T15:41:36.021Z,69.82
2022-12-18T15:43:28.807Z,70.50
2022-12-18T15:45:00.392Z,62.53
2022-12-18T15:46:32.441Z,67.93
2022-12-18T15:48:22.921Z,80.38
2022-12-18T15:49:54.504Z,70.70
2022-12-18T15:51:30.737Z,67.03
2022-12-18T15:53:02.347Z,78.85
2022-12-18T15:54:53.211Z,69.63
2022-12-18T15:56:43.867Z,77.10
2022-12-18T15:58:16.381Z,67.90
2022-12-18T15:59:48.120Z,62.53
2022-12-18T16:01:22.917Z,59.20
2022-12-18T16:02:54.976Z,64.03
2022-12-18T16:04:26.731Z,62.67
2022-12-18T16:06:01.311Z,64.50
2022-12-18T16:07:33.952Z,65.57
2022-12-18T16:09:06.085Z,61.40
2022-12-18T16:10:37.663Z,62.92
2022-12-18T16:12:17.960Z,59.88
2022-12-18T16:13:50.332Z,65.57
2022-12-18T16:15:24.955Z,59.28
2022-12-18T16:17:04.073Z,60.88
2022-12-18T16:18:35.795Z,65.55
2022-12-18T16:20:19.145Z,58.33
2022-12-18T16:21:53.314Z,55.47
2022-12-18T16:23:25.416Z,53.92
2022-12-18T16:24:58.004Z,51.08
2022-12-18T16:26:32.692Z,54.92
2022-12-18T16:28:04.618Z,63.70
2022-12-18T16:29:36.696Z,67.50
2022-12-18T16:31:12.199Z,65.75
2022-12-18T16:32:44.437Z,80.30
2022-12-18T16:34:26.909Z,63.65
2022-12-18T16:36:00.494Z,58.78
2022-12-18T16:37:32.024Z,57.72
2022-12-18T16:39:03.651Z,66.10
2022-12-18T16:40:55.361Z,62.72
2022-12-18T16:42:26.983Z,67.85
2022-12-18T16:43:59.337Z,71.60
2022-12-18T16:45:34.152Z,83.82
2022-12-18T16:47:05.925Z,66.82
2022-12-18T16:48:39.959Z,74.30
2022-12-18T16:50:12.137Z,72.22
2022-12-18T16:51:44.715Z,64.07
2022-12-18T16:53:16.348Z,71.68
2022-12-18T16:54:48.492Z,77.53
2022-12-18T16:56:20.159Z,61.75
2022-12-18T16:57:51.829Z,69.13
2022-12-18T16:59:23.601Z,71.70
2022-12-18T17:00:55.434Z,63.63
2022-12-18T17:02:28.235Z,70.45
2022-12-18T17:04:02.925Z,73.40
2022-12-18T17:05:34.736Z,65.50
2022-12-18T17:07:06.482Z,73.03
2022-12-18T17:08:38.173Z,72.72
2022-12-18T17:10:10.105Z,71.20
2022-12-18T17:11:42.015Z,71.43
2022-12-18T17:13:13.626Z,69.00
2022-12-18T17:14:45.422Z,66.88
2022-12-18T17:16:20.161Z,70.05
2022-12-18T17:17:55.595Z,77.28
2022-12-18T17:19:29.325Z,73.13
2022-12-18T17:21:02.331Z,73.75
2022-12-18T17:22:33.912Z,80.30
2022-12-18T17:24:06.121Z,76.40
2022-12-18T17:25:40.500Z,76.03
2022-12-18T17:27:13.176Z,77.20
2022-12-18T17:28:44.869Z,67.25
2022-12-18T17:30:16.508Z,67.07
2022-12-18T17:31:48.475Z,72.95
2022-12-18T17:33:20.807Z,61.88
2022-12-18T17:34:52.572Z,70.93
2022-12-18T17:36:25.237Z,64.80
2022-12-18T17:37:56.872Z,79.18
2022-12-18T17:39:28.844Z,75.35
2022-12-18T17:41:12.029Z,74.95
2022-12-18T17:42:43.867Z,71.35
2022-12-18T17:44:16.582Z,80.43
2022-12-18T17:45:48.194Z,71.97
2022-12-18T17:47:20.377Z,69.85
2022-12-18T17:48:52.598Z,78.15
2022-12-18T17:50:24.384Z,68.15
2022-12-18T17:51:56.192Z,75.80
2022-12-18T17:53:27.728Z,81.40
2022-12-18T17:54:59.541Z,75.50
2022-12-18T17:56:31.270Z,75.82
2022-12-18T17:58:02.991Z,78.97
2022-12-18T17:59:34.746Z,74.30
2022-12-18T18:01:06.762Z,67.88
2022-12-18T18:02:38.601Z,66.63
2022-12-18T18:04:11.370Z,81.75
2022-12-18T18:05:43.107Z,78.70
2022-12-18T18:07:14.832Z,81.72
2022-12-18T18:08:46.608Z,87.28
2022-12-18T18:10:18.199Z,84.35
2022-12-18T18:12:08.512Z,90.85
2022-12-18T18:13:58.369Z,79.10
2022-12-18T18:15:29.997Z,86.28
2022-12-18T18:17:04.931Z,79.53
2022-12-18T18:18:37.557Z,79.00
2022-12-18T18:20:09.809Z,77.03
2022-12-18T18:21:44.699Z,95.30
2022-12-18T18:23:16.831Z,81.45
2022-12-18T18:24:48.584Z,81.85
2022-12-18T18:26:21.115Z,84.25
2022-12-18T18:27:52.820Z,86.45
2022-12-18T18:29:26.978Z,74.93
2022-12-18T18:31:05.152Z,83.45
2022-12-18T18:32:39.619Z,71.85
2022-12-18T18:34:22.200Z,81.05
2022-12-18T18:35:54.636Z,73.60
2022-12-18T18:37:26.528Z,84.57
2022-12-18T18:39:01.364Z,72.38
2022-12-18T18:40:33.152Z,74.22
2022-12-18T18:42:04.946Z,79.45
2022-12-18T18:43:37.015Z,76.00
2022-12-18T18:45:09.274Z,73.47
2022-12-18T18:46:40.944Z,72.75
2022-12-18T18:48:14.038Z,71.28
2022-12-18T18:49:45.797Z,81.47
2022-12-18T18:51:21.976Z,71.28
2022-12-18T18:52:54.055Z,77.78
2022-12-18T18:54:26.168Z,76.00
2022-12-18T18:56:34.858Z,64.88
2022-12-18T18:57:52.347Z,69.70
2022-12-18T18:59:24.435Z,85.05
2022-12-18T19:01:10.495Z,78.30
2022-12-18T19:02:42.382Z,79.53
2022-12-18T19:04:14.041Z,99.97
2022-12-18T19:05:51.883Z,105.80
2022-12-18T19:07:30.436Z,95.20
2022-12-18T19:09:04.937Z,77.63
2022-12-18T19:10:40.693Z,90.22
2022-12-18T19:12:30.761Z,76.18
2022-12-18T19:14:05.779Z,80.18
2022-12-18T19:15:37.411Z,77.10
2022-12-18T19:17:11.129Z,82.20
2022-12-18T19:18:43.491Z,108.18
2022-12-18T19:20:15.869Z,100.63
2022-12-18T19:21:47.971Z,114.32
2022-12-18T19:23:19.731Z,107.53
2022-12-18T19:24:51.576Z,72.72
2022-12-18T19:26:30.399Z,85.10
2022-12-18T19:28:02.014Z,89.35
2022-12-18T19:29:36.789Z,82.82
2022-12-18T19:31:13.195Z,84.95
2022-12-18T19:32:44.937Z,82.38
2022-12-18T19:34:16.558Z,75.35
2022-12-18T19:35:48.408Z,71.90
2022-12-18T19:37:19.947Z,84.47
2022-12-18T19:38:53.695Z,93.65
2022-12-18T19:40:25.495Z,107.88
2022-12-18T19:41:57.971Z,80.38
2022-12-18T19:43:29.624Z,68.95
2022-12-18T19:45:01.393Z,78.25
2022-12-18T19:46:33.458Z,75.07
2022-12-18T19:48:06.857Z,70.15
2022-12-18T19:49:38.903Z,70.97
2022-12-18T19:51:17.160Z,71.03
2022-12-18T19:52:48.945Z,68.47
2022-12-18T19:54:20.649Z,73.07
2022-12-18T19:55:52.420Z,68.22
2022-12-18T19:57:24.133Z,61.45
2022-12-18T19:58:56.085Z,66.28
2022-12-18T20:00:27.696Z,65.75
2022-12-18T20:01:59.560Z,73.90
2022-12-18T20:03:32.770Z,84.10
2022-12-18T20:05:10.781Z,70.15
2022-12-18T20:06:50.650Z,63.47
2022-12-18T20:08:22.733Z,69.88
2022-12-18T20:10:01.425Z,72.35
2022-12-18T20:13:14.164Z,65.45
2022-12-18T20:14:46.683Z,64.30
2022-12-18T20:16:18.391Z,74.72
2022-12-18T20:17:50.054Z,70.75
2022-12-18T20:19:22.406Z,79.88
2022-12-18T20:20:54.542Z,86.97
2022-12-18T20:22:28.253Z,70.78
2022-12-18T20:24:01.239Z,73.55
2022-12-18T20:25:32.953Z,72.32
2022-12-18T20:27:04.745Z,75.38
2022-12-18T20:28:36.447Z,82.07
2022-12-18T20:30:11.132Z,73.15
2022-12-18T20:31:43.086Z,76.47
2022-12-18T20:33:15.238Z,91.03
2022-12-18T20:34:46.869Z,70.32
2022-12-18T20:36:27.002Z,78.55
2022-12-18T20:37:59.863Z,75.72
2022-12-18T20:39:32.629Z,79.20
2022-12-18T20:41:11.886Z,74.35
2022-12-18T20:42:43.533Z,78.38
2022-12-18T20:44:23.271Z,94.05
2022-12-18T20:46:03.415Z,82.68
2022-12-18T20:47:35.076Z,80.90
2022-12-18T20:49:06.734Z,74.13